createdAt,value
2022-10-01T08:20:32.203Z,24.30
2022-10-01T08:23:08.204Z,25.40
2022-10-01T08:25:37.975Z,25.60
2022-10-01T08:28:08.329Z,26.00
2022-10-01T08:30:38.324Z,26.50
2022-10-01T08:33:07.809Z,27.00
2022-10-01T08:35:39.427Z,27.40
2022-10-01T08:38:09.029Z,27.50
2022-10-01T08:40:43.368Z,27.50
2022-10-01T08:43:23.876Z,27.50
2022-10-01T08:45:54.152Z,27.40
2022-10-01T08:48:32.204Z,27.40
2022-10-01T08:51:04.296Z,27.40
2022-10-01T08:53:38.162Z,27.40
2022-10-01T08:56:07.657Z,27.30
2022-10-01T08:58:41.745Z,27.10
2022-10-01T09:01:12.119Z,27.10
2022-10-01T09:03:41.709Z,27.00
2022-10-01T09:06:11.242Z,27.00
2022-10-01T09:09:00.780Z,27.10
2022-10-01T09:11:44.150Z,27.00
2022-10-01T09:14:19.382Z,26.80
2022-10-01T09:17:07.360Z,26.70
2022-10-01T09:19:38.105Z,26.50
2022-10-01T09:22:21.291Z,26.40
2022-10-01T09:25:00.122Z,26.30
2022-10-01T09:27:29.720Z,26.10
2022-10-01T09:30:17.323Z,25.90
2022-10-01T09:32:48.491Z,25.90
2022-10-01T09:35:21.024Z,26.00
2022-10-01T09:37:53.115Z,25.90
2022-10-01T09:40:29.442Z,25.90
2022-10-01T09:42:58.979Z,25.80
2022-10-01T09:45:28.634Z,25.70
2022-10-01T09:47:59.202Z,25.70
2022-10-01T09:50:32.919Z,25.60
2022-10-01T09:53:02.414Z,25.50
2022-10-01T09:55:37.880Z,25.50
2022-10-01T09:58:11.365Z,25.50
2022-10-01T10:00:42.157Z,25.40
2022-10-01T10:03:11.681Z,25.40
2022-10-01T10:05:42.002Z,25.30
2022-10-01T10:08:16.059Z,25.30
2022-10-01T10:10:52.514Z,25.20
2022-10-01T10:13:25.810Z,25.10
2022-10-01T10:15:59.542Z,25.10
2022-10-01T10:21:54.458Z,25.10
2022-10-01T10:24:34.870Z,25.40
2022-10-01T10:27:06.730Z,25.10
2022-10-01T10:29:37.870Z,24.80
2022-10-01T10:32:25.559Z,24.60
2022-10-01T10:35:03.174Z,24.50
2022-10-01T10:37:36.131Z,24.40
2022-10-01T10:40:09.143Z,24.40
2022-10-01T10:42:40.063Z,24.40
2022-10-01T10:45:17.660Z,24.30
2022-10-01T10:47:49.532Z,24.20
2022-10-01T10:50:32.391Z,24.20
2022-10-01T10:53:05.399Z,24.20
2022-10-01T10:55:35.301Z,24.20
2022-10-01T10:58:16.141Z,24.20
2022-10-01T11:00:51.262Z,24.10
2022-10-01T11:03:25.987Z,24.00
2022-10-01T11:05:57.481Z,24.00
2022-10-01T11:08:29.013Z,24.00
2022-10-01T11:11:14.745Z,24.00
2022-10-01T11:13:59.510Z,24.00
2022-10-01T11:16:32.738Z,23.90
2022-10-01T11:19:12.457Z,23.90
2022-10-01T11:22:00.674Z,23.90
2022-10-01T11:24:39.460Z,23.90
2022-10-01T11:27:15.337Z,23.90
2022-10-01T11:30:08.502Z,23.80
2022-10-01T11:32:37.930Z,23.90
2022-10-01T11:35:45.324Z,23.80
2022-10-01T11:38:24.899Z,23.90
2022-10-01T11:41:14.569Z,23.70
2022-10-01T11:44:08.788Z,23.70
2022-10-01T11:47:00.185Z,23.70
2022-10-01T11:49:56.358Z,23.70
2022-10-01T11:52:46.172Z,23.70
2022-10-01T11:56:00.603Z,23.70
2022-10-01T11:58:55.214Z,23.70
2022-10-01T12:01:25.294Z,23.70
2022-10-01T12:03:55.363Z,23.60
2022-10-01T12:06:30.493Z,23.60
2022-10-01T12:09:22.853Z,23.60
2022-10-01T12:12:02.514Z,23.40
2022-10-01T12:14:46.889Z,23.30
2022-10-01T12:17:39.766Z,23.30
2022-10-01T12:20:23.552Z,23.40
2022-10-01T12:22:53.486Z,23.30
2022-10-01T12:25:24.754Z,23.30
2022-10-01T12:28:13.543Z,23.30
2022-10-01T12:31:27.864Z,23.30
2022-10-01T12:34:19.401Z,23.20
2022-10-01T12:37:11.450Z,23.20
2022-10-01T12:39:56.797Z,23.20
2022-10-01T12:42:49.545Z,23.20
2022-10-01T12:45:44.978Z,23.10
2022-10-01T12:48:18.213Z,23.00
2022-10-01T12:51:11.976Z,23.00
2022-10-01T12:54:01.616Z,23.10
2022-10-01T12:56:39.077Z,23.00
2022-10-01T12:59:27.472Z,22.90
2022-10-01T13:02:12.642Z,23.00
2022-10-01T13:05:04.561Z,23.00
2022-10-01T13:08:05.438Z,22.90
2022-10-01T13:10:52.999Z,22.80
2022-10-01T13:13:34.208Z,22.90
2022-10-01T13:16:19.586Z,22.90
2022-10-01T13:18:55.651Z,22.90
2022-10-01T13:21:41.118Z,22.80
2022-10-01T13:24:38.421Z,22.80
2022-10-01T13:27:08.267Z,22.80
2022-10-01T13:30:01.112Z,22.80
2022-10-01T13:32:38.502Z,22.80
2022-10-01T13:35:35.200Z,22.80
2022-10-01T13:38:31.390Z,22.70
2022-10-01T13:41:17.795Z,22.80
2022-10-01T13:43:59.554Z,22.70
2022-10-01T13:46:32.436Z,22.60
2022-10-01T13:49:09.188Z,22.70
2022-10-01T13:51:39.319Z,22.70
2022-10-01T13:54:15.845Z,22.70
2022-10-01T13:56:48.492Z,22.70
2022-10-01T13:59:33.964Z,22.60
2022-10-01T14:02:04.282Z,22.60
2022-10-01T14:04:41.681Z,22.60
2022-10-01T14:07:29.564Z,22.60
2022-10-01T14:10:00.269Z,22.70
2022-10-01T14:12:55.242Z,22.60
2022-10-01T14:15:46.101Z,22.60
2022-10-01T14:18:22.866Z,22.60
2022-10-01T14:21:22.641Z,22.60
2022-10-01T14:24:16.951Z,22.50
2022-10-01T14:27:24.347Z,22.50
2022-10-01T14:30:15.828Z,22.50
2022-10-01T14:33:13.441Z,22.50
2022-10-01T14:35:51.390Z,22.40
2022-10-01T14:38:22.333Z,22.40
2022-10-01T14:40:52.525Z,22.40
2022-10-01T14:43:30.598Z,22.40
2022-10-01T14:46:05.319Z,22.40
2022-10-01T14:48:36.553Z,22.40
2022-10-01T14:51:07.886Z,22.40
2022-10-01T14:53:38.858Z,22.40
2022-10-01T14:56:11.556Z,22.40
2022-10-01T14:58:45.855Z,22.40
2022-10-01T15:01:23.208Z,22.40
2022-10-01T15:03:53.968Z,22.30
2022-10-01T15:06:26.126Z,22.30
2022-10-01T15:08:56.552Z,22.30
2022-10-01T15:11:30.777Z,22.30
2022-10-01T15:14:08.275Z,22.30
2022-10-01T15:16:38.533Z,22.20
2022-10-01T15:19:10.640Z,22.30
2022-10-01T15:21:51.682Z,22.20
2022-10-01T15:24:26.979Z,22.20
2022-10-01T15:26:58.237Z,22.20
2022-10-01T15:29:28.348Z,22.20
2022-10-01T15:31:58.647Z,22.20
2022-10-01T15:34:28.711Z,22.10
2022-10-01T15:36:58.662Z,22.10
2022-10-01T15:39:41.271Z,22.20
2022-10-01T15:42:26.845Z,22.20
2022-10-01T15:45:14.235Z,22.20
2022-10-01T15:47:52.903Z,22.10
2022-10-01T15:50:47.109Z,22.20
2022-10-01T15:53:19.555Z,22.10
2022-10-01T15:55:50.808Z,22.10
2022-10-01T15:58:31.434Z,22.10
2022-10-01T16:01:18.786Z,22.10
2022-10-01T16:03:58.932Z,22.10
2022-10-01T16:06:54.936Z,22.10
2022-10-01T16:09:32.623Z,22.10
2022-10-01T16:12:25.161Z,22.10
2022-10-01T16:15:02.427Z,22.00
2022-10-01T16:17:38.533Z,22.10
2022-10-01T16:20:17.407Z,22.10
2022-10-01T16:22:47.460Z,22.10
2022-10-01T16:25:24.919Z,22.10
2022-10-01T16:28:03.426Z,22.00
2022-10-01T16:30:34.752Z,22.10
2022-10-01T16:33:07.952Z,22.00
2022-10-01T16:35:39.812Z,22.00
2022-10-01T16:38:10.803Z,22.00
2022-10-01T16:40:44.820Z,22.00
2022-10-01T16:43:26.508Z,22.10
2022-10-01T16:45:56.531Z,22.00
2022-10-01T16:48:26.625Z,22.00
2022-10-01T16:51:00.139Z,22.00
2022-10-01T16:53:30.766Z,22.00
2022-10-01T16:56:00.654Z,22.00
2022-10-01T16:58:30.589Z,22.00
2022-10-01T17:01:00.624Z,22.00
2022-10-01T17:03:30.580Z,22.00
2022-10-01T17:06:00.606Z,22.00
2022-10-01T17:08:30.726Z,21.90
2022-10-01T17:11:02.443Z,22.00
2022-10-01T17:13:35.267Z,22.00
2022-10-01T17:16:06.983Z,21.90
2022-10-01T17:18:36.979Z,22.00
2022-10-01T17:21:07.201Z,22.00
2022-10-01T17:23:37.943Z,22.00
2022-10-01T17:26:11.210Z,21.90
2022-10-01T17:28:41.226Z,22.00
2022-10-01T17:31:14.391Z,21.90
2022-10-01T17:33:47.580Z,21.90
2022-10-01T17:36:17.414Z,21.90
2022-10-01T17:38:47.607Z,21.90
2022-10-01T17:41:17.596Z,21.90
2022-10-01T17:43:47.490Z,21.90
2022-10-01T17:46:17.515Z,21.90
2022-10-01T17:48:50.250Z,21.90
2022-10-01T17:51:21.011Z,22.00
2022-10-01T17:53:51.026Z,22.00
2022-10-01T17:56:21.066Z,22.00
2022-10-01T17:58:50.990Z,22.00
2022-10-01T18:01:22.265Z,22.10
2022-10-01T18:04:01.420Z,22.00
2022-10-01T18:06:31.640Z,21.90
2022-10-01T18:09:01.545Z,22.00
2022-10-01T18:11:31.734Z,22.00
2022-10-01T18:14:01.774Z,22.00
2022-10-01T18:16:33.459Z,22.10
2022-10-01T18:21:54.224Z,22.00
2022-10-01T18:24:24.183Z,22.00
2022-10-01T18:26:54.252Z,22.00
2022-10-01T18:29:25.892Z,22.00
2022-10-01T18:32:03.482Z,22.10
2022-10-01T18:35:01.850Z,22.00
2022-10-01T18:37:40.071Z,22.00
2022-10-01T18:40:18.912Z,22.00
2022-10-01T18:43:19.862Z,22.00
2022-10-01T18:46:08.742Z,22.10
2022-10-01T18:48:43.419Z,22.10
2022-10-01T18:51:25.849Z,22.00
2022-10-01T18:54:07.840Z,22.00
2022-10-01T18:56:38.909Z,22.00
2022-10-01T18:59:22.126Z,22.00
2022-10-01T19:02:09.870Z,22.00
2022-10-01T19:04:54.489Z,22.00
2022-10-01T19:07:35.607Z,21.90
2022-10-01T19:11:01.219Z,21.90
2022-10-01T19:13:31.123Z,21.90
2022-10-01T19:16:37.925Z,21.90
2022-10-01T19:19:12.533Z,21.90
2022-10-01T19:21:50.406Z,22.00
2022-10-01T19:24:35.107Z,21.90
2022-10-01T19:27:24.994Z,21.90
2022-10-01T19:30:05.695Z,21.90
2022-10-01T19:32:43.732Z,22.00
2022-10-01T19:35:24.644Z,22.00
2022-10-01T19:37:59.494Z,21.90
2022-10-01T19:40:55.251Z,22.00
2022-10-01T19:43:43.450Z,21.90
2022-10-01T19:46:17.008Z,21.90
2022-10-01T19:49:07.590Z,21.90
2022-10-01T19:51:51.218Z,21.90
2022-10-01T19:54:22.482Z,21.80
2022-10-01T19:56:58.232Z,21.80
2022-10-01T19:59:28.756Z,21.80
2022-10-01T20:02:15.772Z,21.80
2022-10-01T20:04:52.981Z,21.80
2022-10-01T20:07:38.355Z,21.80
2022-10-01T20:10:23.125Z,21.80
2022-10-01T20:13:02.187Z,21.80
2022-10-01T20:15:38.877Z,21.80
2022-10-01T20:18:14.532Z,21.70
2022-10-01T20:21:08.944Z,21.70
2022-10-01T20:23:47.956Z,21.70
2022-10-01T20:26:45.520Z,21.70
2022-10-01T20:29:35.894Z,21.70
2022-10-01T20:32:07.781Z,21.70
2022-10-01T20:34:37.664Z,21.70
2022-10-01T20:37:36.003Z,21.70
2022-10-01T20:40:07.993Z,21.70
2022-10-01T20:42:40.347Z,21.70
2022-10-01T20:45:35.158Z,21.80
2022-10-01T20:48:13.864Z,21.70
2022-10-01T20:50:59.585Z,21.60
2022-10-01T20:53:46.735Z,21.60
2022-10-01T20:56:25.211Z,21.70
2022-10-01T20:58:58.535Z,21.60
2022-10-01T21:01:31.631Z,21.70
2022-10-01T21:04:07.853Z,21.60
2022-10-01T21:06:38.293Z,21.60
2022-10-01T21:09:46.682Z,21.60
2022-10-01T21:12:26.068Z,21.60
2022-10-01T21:14:57.143Z,21.60
2022-10-01T21:17:36.458Z,21.60
2022-10-01T21:20:11.756Z,21.60
2022-10-01T21:23:06.226Z,21.50
2022-10-01T21:25:48.076Z,21.50
2022-10-01T21:28:32.892Z,21.50
2022-10-01T21:31:44.427Z,21.50
2022-10-01T21:34:18.768Z,21.50
2022-10-01T21:36:58.102Z,21.50
2022-10-01T21:39:39.994Z,21.50
2022-10-01T21:42:25.151Z,21.50
2022-10-01T21:45:03.948Z,21.50
2022-10-01T21:47:53.208Z,21.50
2022-10-01T21:50:54.109Z,21.40
2022-10-01T21:53:46.900Z,21.50
2022-10-01T21:56:36.994Z,21.40
2022-10-01T21:59:26.334Z,21.40
2022-10-01T22:02:29.501Z,21.40
2022-10-01T22:05:24.403Z,21.40
2022-10-01T22:07:59.836Z,21.40
2022-10-01T22:10:49.833Z,21.40
2022-10-01T22:13:25.702Z,21.30
2022-10-01T22:15:58.630Z,21.40
2022-10-01T22:18:39.469Z,21.40
2022-10-01T22:21:19.103Z,21.30
2022-10-01T22:23:53.180Z,21.30
2022-10-01T22:26:24.254Z,21.30
2022-10-01T22:28:55.106Z,21.40
2022-10-01T22:31:28.367Z,21.40
2022-10-01T22:34:07.126Z,21.40
2022-10-01T22:36:46.072Z,21.30
2022-10-01T22:39:25.426Z,21.30
2022-10-01T22:42:10.759Z,21.30
2022-10-01T22:44:40.617Z,21.30
2022-10-01T22:47:33.337Z,21.30
2022-10-01T22:50:09.407Z,21.30
2022-10-01T22:53:01.879Z,21.20
2022-10-01T22:55:39.779Z,21.20
2022-10-01T22:58:22.908Z,21.30
2022-10-01T23:01:17.615Z,21.20
2022-10-01T23:04:15.213Z,21.20
2022-10-01T23:07:00.192Z,21.10
2022-10-01T23:09:53.693Z,21.20
2022-10-01T23:12:35.418Z,21.10
2022-10-01T23:15:49.997Z,21.20
2022-10-01T23:18:36.157Z,21.20
2022-10-01T23:21:09.578Z,21.20
2022-10-01T23:23:39.779Z,21.20
2022-10-01T23:26:25.630Z,21.20
2022-10-01T23:29:04.241Z,21.20
2022-10-01T23:31:52.016Z,21.20
2022-10-01T23:34:30.905Z,21.20
2022-10-01T23:37:09.473Z,21.10
2022-10-01T23:39:39.476Z,21.10
2022-10-01T23:42:38.009Z,21.10
2022-10-01T23:45:35.651Z,21.10
2022-10-01T23:48:15.351Z,21.10
2022-10-01T23:51:03.912Z,21.20
2022-10-01T23:53:46.001Z,21.10
2022-10-01T23:56:50.047Z,21.10
2022-10-01T23:59:39.257Z,21.10
